Time;durP1;ratioP1;P1;durP2;ratioP2;P2;SDS_P1;SDS_P2;PMS_P1;PMS_P2;Temp;Humidity;BMP_temperature;BMP_pressure;BME280_temperature;BME280_humidity;BME280_pressure;Samples;Min_cycle;Max_cycle;Signal;HPM_P1;HPM_P2
2022/12/31 00:01:35;;;;;;;1.40;0.88;;;9.80;99.90;;;;;;5013568;28;20056;-68
2022/12/31 00:04:02;;;;;;;0.90;0.90;;;9.90;99.80;;;;;;5009002;28;20034;-67
2022/12/31 00:06:31;;;;;;;0.63;0.60;;;9.90;99.90;;;;;;5011026;28;20124;-68
2022/12/31 00:08:58;;;;;;;0.68;0.60;;;9.90;99.90;;;;;;5012135;28;20026;-68
2022/12/31 00:11:25;;;;;;;1.48;0.75;;;9.90;99.90;;;;;;5006697;28;20046;-67
2022/12/31 00:13:52;;;;;;;0.35;0.35;;;10.10;99.90;;;;;;5006975;28;20154;-68
2022/12/31 00:16:23;;;;;;;0.40;0.40;;;10.10;99.80;;;;;;5014986;28;20037;-67
2022/12/31 00:18:51;;;;;;;0.55;0.55;;;10.10;99.60;;;;;;5014068;28;20037;-67
2022/12/31 00:21:18;;;;;;;0.65;0.60;;;10.10;99.70;;;;;;5013776;28;20061;-67
2022/12/31 00:23:44;;;;;;;0.40;0.40;;;10.10;99.90;;;;;;5009003;28;20049;-67
2022/12/31 00:26:13;;;;;;;1.58;0.50;;;10.10;99.90;;;;;;5008247;28;20038;-67
2022/12/31 00:28:39;;;;;;;0.50;0.32;;;10.20;99.70;;;;;;5011701;28;20033;-67
2022/12/31 00:31:12;;;;;;;0.47;0.47;;;10.20;99.70;;;;;;5009804;28;20444;-66
2022/12/31 00:33:38;;;;;;;0.47;0.40;;;10.20;99.70;;;;;;5012513;28;20025;-67
2022/12/31 00:36:06;;;;;;;0.38;0.38;;;10.20;99.80;;;;;;5012749;28;20375;-66
2022/12/31 00:38:32;;;;;;;1.45;0.38;;;10.20;99.70;;;;;;4994939;28;20056;-65
2022/12/31 00:40:58;;;;;;;1.25;0.32;;;10.30;99.60;;;;;;5011113;28;20556;-66
2022/12/31 00:43:24;;;;;;;0.90;0.55;;;10.40;99.50;;;;;;5013567;28;20112;-67
2022/12/31 00:45:49;;;;;;;0.57;0.47;;;10.40;99.30;;;;;;5009658;28;20095;-67
2022/12/31 00:48:15;;;;;;;0.40;0.40;;;10.40;99.40;;;;;;5005690;28;20140;-67
2022/12/31 00:50:41;;;;;;;0.90;0.50;;;10.50;99.30;;;;;;5012477;28;20038;-67
2022/12/31 00:53:07;;;;;;;0.73;0.50;;;10.60;99.20;;;;;;5012277;28;20033;-67
2022/12/31 00:55:32;;;;;;;0.38;0.38;;;10.60;99.30;;;;;;5017479;28;20033;-67
2022/12/31 00:57:58;;;;;;;1.38;0.30;;;10.50;99.50;;;;;;4989276;28;20114;-67
2022/12/31 01:00:24;;;;;;;0.30;0.30;;;10.40;99.90;;;;;;5009901;28;20079;-67
2022/12/31 01:02:49;;;;;;;0.30;0.30;;;10.30;99.90;;;;;;5010213;28;20522;-68
2022/12/31 01:05:15;;;;;;;0.55;0.28;;;10.40;99.90;;;;;;5011198;28;20494;-67
2022/12/31 01:07:41;;;;;;;0.20;0.20;;;10.50;99.90;;;;;;5008166;28;20098;-67
2022/12/31 01:10:07;;;;;;;0.25;0.25;;;10.50;99.90;;;;;;5016027;28;20036;-67
2022/12/31 01:12:33;;;;;;;0.50;0.20;;;10.60;99.90;;;;;;5022409;28;20049;-68
2022/12/31 01:14:59;;;;;;;0.28;0.28;;;10.60;99.90;;;;;;5019242;28;20104;-68
2022/12/31 01:17:27;;;;;;;0.47;0.30;;;10.70;99.90;;;;;;5001811;28;20041;-67
2022/12/31 01:19:53;;;;;;;0.10;0.10;;;10.80;99.70;;;;;;5013188;28;20044;-67
2022/12/31 01:22:18;;;;;;;0.45;0.38;;;10.90;99.60;;;;;;5012860;28;20042;-68
2022/12/31 01:24:44;;;;;;;0.20;0.20;;;10.80;99.90;;;;;;5014287;28;20420;-67
2022/12/31 01:27:10;;;;;;;0.20;0.20;;;10.80;99.90;;;;;;5013773;28;20494;-66
2022/12/31 01:29:36;;;;;;;0.30;0.30;;;10.80;99.90;;;;;;5006381;28;20038;-67
2022/12/31 01:32:02;;;;;;;0.70;0.30;;;10.80;99.90;;;;;;5015905;28;20398;-67
2022/12/31 01:34:27;;;;;;;0.30;0.30;;;10.90;99.90;;;;;;5015989;28;20100;-67
2022/12/31 01:36:53;;;;;;;0.20;0.20;;;10.90;99.90;;;;;;4996890;28;20809;-66
2022/12/31 01:39:19;;;;;;;0.40;0.20;;;10.90;99.90;;;;;;5014077;28;20330;-66
2022/12/31 01:41:46;;;;;;;0.20;0.20;;;11.00;99.90;;;;;;5007807;28;20034;-66
2022/12/31 01:44:12;;;;;;;0.20;0.20;;;10.90;99.90;;;;;;5011539;28;20033;-67
2022/12/31 01:46:51;;;;;;;0.35;0.30;;;11.00;99.90;;;;;;5016727;28;20018;-67
2022/12/31 01:49:23;;;;;;;0.30;0.30;;;11.00;99.90;;;;;;5012247;28;20124;-66
2022/12/31 01:51:56;;;;;;;0.10;0.10;;;11.20;99.90;;;;;;5021109;28;20032;-67
2022/12/31 01:54:25;;;;;;;2.38;0.17;;;11.20;99.90;;;;;;5011464;28;20549;-67
2022/12/31 01:56:52;;;;;;;0.73;0.28;;;11.30;99.90;;;;;;5013297;28;20022;-66
2022/12/31 01:59:20;;;;;;;0.60;0.20;;;11.30;99.90;;;;;;5014146;28;20033;-67
2022/12/31 02:01:47;;;;;;;0.25;0.20;;;11.30;99.90;;;;;;4994121;28;20072;-66
2022/12/31 02:04:14;;;;;;;0.10;0.10;;;11.40;99.90;;;;;;5008379;28;20493;-67
2022/12/31 02:07:03;;;;;;;0.10;0.10;;;11.50;99.90;;;;;;5014278;28;20145;-67
2022/12/31 02:09:30;;;;;;;0.20;0.20;;;11.50;99.90;;;;;;5001050;28;20025;-66
2022/12/31 02:11:56;;;;;;;0.30;0.20;;;11.60;99.70;;;;;;5017925;28;20049;-67
2022/12/31 02:14:27;;;;;;;0.40;0.20;;;11.60;99.70;;;;;;5017805;28;20029;-66
2022/12/31 02:17:02;;;;;;;1.02;0.25;;;11.50;99.90;;;;;;5010038;28;20080;-67
2022/12/31 02:20:00;;;;;;;1.35;0.20;;;11.50;99.90;;;;;;5013011;28;20035;-67
2022/12/31 02:22:48;;;;;;;0.32;0.32;;;11.50;99.90;;;;;;5013991;28;20167;-67
2022/12/31 02:25:25;;;;;;;0.93;0.30;;;11.60;99.90;;;;;;5009525;28;20034;-67
2022/12/31 02:28:18;;;;;;;0.43;0.30;;;11.60;99.90;;;;;;5016001;28;20045;-67
2022/12/31 02:30:49;;;;;;;0.17;0.10;;;11.60;99.90;;;;;;5014356;28;20467;-66
2022/12/31 02:33:25;;;;;;;0.22;0.20;;;11.60;99.90;;;;;;5014647;28;20040;-67
2022/12/31 02:36:01;;;;;;;;;;;11.60;99.90;;;;;;5013378;28;20033;-67
2022/12/31 02:38:32;;;;;;;0.43;0.30;;;11.80;99.80;;;;;;5008172;28;20153;-67
2022/12/31 02:40:59;;;;;;;0.32;0.22;;;11.80;99.60;;;;;;5013673;28;20030;-67
2022/12/31 02:43:25;;;;;;;0.52;0.30;;;11.80;99.60;;;;;;5013542;28;20046;-66
2022/12/31 02:46:24;;;;;;;0.22;0.22;;;11.80;99.60;;;;;;5008930;28;20034;-67
2022/12/31 02:49:30;;;;;;;0.20;0.20;;;11.90;99.50;;;;;;5010014;28;20033;-67
2022/12/31 02:52:19;;;;;;;0.10;0.10;;;12.00;99.30;;;;;;5014271;28;20151;-66
2022/12/31 02:54:57;;;;;;;0.10;0.10;;;12.10;98.90;;;;;;5014792;28;20036;-67
2022/12/31 02:57:46;;;;;;;0.50;0.20;;;12.10;98.80;;;;;;5014424;28;20058;-67
2022/12/31 03:03:01;;;;;;;0.35;0.30;;;12.20;98.70;;;;;;5015302;28;20430;-67
2022/12/31 03:05:30;;;;;;;0.45;0.20;;;12.20;98.60;;;;;;5016010;28;20030;-66
2022/12/31 03:07:56;;;;;;;0.13;0.13;;;12.20;98.70;;;;;;5018555;28;20033;-66
2022/12/31 03:10:22;;;;;;;0.10;0.10;;;12.20;98.70;;;;;;5011693;28;20045;-67
2022/12/31 03:12:48;;;;;;;0.30;0.10;;;12.20;98.60;;;;;;5009824;28;20044;-66
2022/12/31 03:15:19;;;;;;;0.35;0.20;;;12.30;98.80;;;;;;5011340;28;20030;-66
2022/12/31 03:17:52;;;;;;;0.50;0.20;;;12.20;98.60;;;;;;5015450;28;20501;-66
2022/12/31 03:23:07;;;;;;;2.53;0.20;;;12.30;98.60;;;;;;5009558;28;20043;-67
2022/12/31 03:25:39;;;;;;;0.30;0.20;;;12.30;98.80;;;;;;5012832;28;20038;-67
2022/12/31 03:28:10;;;;;;;0.30;0.10;;;12.20;99.10;;;;;;5013498;28;20438;-67
2022/12/31 03:30:38;;;;;;;0.32;0.20;;;12.10;99.30;;;;;;5013684;28;20051;-67
2022/12/31 03:33:06;;;;;;;0.20;0.20;;;12.10;99.40;;;;;;5006762;28;20040;-67
2022/12/31 03:35:34;;;;;;;0.50;0.20;;;12.20;99.50;;;;;;5008559;28;20083;-67
2022/12/31 03:38:01;;;;;;;0.13;0.13;;;12.10;99.60;;;;;;5014229;28;20034;-67
2022/12/31 03:40:28;;;;;;;0.10;0.10;;;12.20;99.60;;;;;;5009974;28;20781;-67
2022/12/31 03:42:54;;;;;;;0.20;0.20;;;12.30;99.40;;;;;;5010431;28;20400;-67
2022/12/31 03:45:20;;;;;;;0.22;0.20;;;12.30;99.30;;;;;;5013833;28;20033;-67
2022/12/31 03:47:46;;;;;;;0.10;0.10;;;12.30;99.30;;;;;;5011411;28;20029;-67
2022/12/31 03:50:15;;;;;;;0.10;0.10;;;12.30;99.30;;;;;;5013063;28;20498;-67
2022/12/31 03:52:41;;;;;;;0.13;0.13;;;12.40;99.40;;;;;;5012582;28;20268;-67
2022/12/31 03:55:08;;;;;;;0.10;0.10;;;12.50;99.10;;;;;;5009591;28;20116;-67
2022/12/31 03:57:35;;;;;;;0.40;0.20;;;12.40;99.30;;;;;;5008750;28;20029;-66
2022/12/31 04:00:01;;;;;;;0.20;0.20;;;12.40;99.40;;;;;;5014811;28;20030;-67
2022/12/31 04:02:30;;;;;;;0.43;0.20;;;12.50;99.30;;;;;;5016024;28;20065;-66
2022/12/31 04:04:56;;;;;;;0.28;0.28;;;12.60;99.20;;;;;;5015774;28;20124;-67
2022/12/31 04:07:22;;;;;;;0.22;0.22;;;12.70;98.80;;;;;;5010194;28;20033;-67
2022/12/31 04:09:48;;;;;;;1.63;0.20;;;12.80;98.70;;;;;;5013411;28;20038;-67
2022/12/31 04:12:13;;;;;;;0.75;0.30;;;12.80;98.50;;;;;;5011872;28;20048;-68
2022/12/31 04:14:39;;;;;;;0.20;0.20;;;12.80;98.40;;;;;;5010577;28;20809;-67
2022/12/31 04:17:05;;;;;;;0.10;0.10;;;12.80;98.40;;;;;;5003818;28;20100;-67
2022/12/31 04:19:31;;;;;;;0.20;0.20;;;12.70;98.50;;;;;;5012057;28;20095;-67
2022/12/31 04:21:57;;;;;;;0.17;0.17;;;12.70;98.30;;;;;;5014177;28;20124;-67
2022/12/31 04:24:23;;;;;;;1.10;0.20;;;12.60;98.50;;;;;;5015482;28;20827;-67
2022/12/31 04:26:49;;;;;;;1.38;0.50;;;12.60;98.70;;;;;;5016199;28;20028;-67
2022/12/31 04:29:15;;;;;;;0.43;0.30;;;12.60;98.60;;;;;;5007492;28;20509;-67
2022/12/31 04:31:41;;;;;;;0.30;0.28;;;12.60;98.80;;;;;;5006834;28;20750;-67
2022/12/31 04:34:07;;;;;;;0.40;0.30;;;12.50;99.00;;;;;;5014367;28;20033;-67
2022/12/31 04:36:33;;;;;;;2.67;0.50;;;12.60;99.00;;;;;;5015842;28;20075;-67
2022/12/31 04:38:59;;;;;;;0.30;0.30;;;12.60;98.90;;;;;;5004055;28;20030;-67
2022/12/31 04:41:25;;;;;;;0.15;0.10;;;12.60;99.00;;;;;;5014792;28;20034;-67
2022/12/31 04:43:57;;;;;;;0.57;0.30;;;12.50;99.30;;;;;;5017454;28;20026;-67
2022/12/31 04:46:28;;;;;;;1.02;0.43;;;12.50;99.30;;;;;;5017581;28;20044;-67
2022/12/31 04:48:55;;;;;;;0.20;0.20;;;12.40;99.60;;;;;;5017437;28;20545;-67
2022/12/31 04:51:21;;;;;;;0.35;0.20;;;12.40;99.60;;;;;;5009240;28;20401;-67
2022/12/31 04:53:48;;;;;;;0.90;0.22;;;12.40;99.60;;;;;;4993702;28;20139;-67
2022/12/31 04:56:15;;;;;;;0.52;0.22;;;12.40;99.60;;;;;;5016791;28;20116;-68
2022/12/31 04:58:43;;;;;;;0.10;0.10;;;12.30;99.80;;;;;;5013947;28;20032;-67
2022/12/31 05:01:09;;;;;;;0.28;0.28;;;12.40;99.80;;;;;;5017481;28;20026;-66
2022/12/31 05:03:35;;;;;;;0.20;0.20;;;12.40;99.70;;;;;;5014374;28;20033;-67
2022/12/31 05:06:04;;;;;;;2.30;0.28;;;12.50;99.70;;;;;;5013741;28;20037;-67
2022/12/31 05:08:30;;;;;;;0.20;0.20;;;12.40;99.70;;;;;;5016726;28;20043;-67
2022/12/31 05:10:57;;;;;;;0.20;0.20;;;12.40;99.90;;;;;;5011722;28;20116;-67
2022/12/31 05:13:23;;;;;;;1.42;0.25;;;12.40;99.90;;;;;;5010785;28;20198;-67
2022/12/31 05:15:50;;;;;;;2.08;0.47;;;12.40;99.90;;;;;;5023282;28;20044;-67
2022/12/31 05:18:16;;;;;;;0.13;0.13;;;12.40;99.90;;;;;;5001126;28;20041;-67
2022/12/31 05:20:42;;;;;;;0.40;0.40;;;12.30;99.90;;;;;;5018856;28;20037;-68
2022/12/31 05:23:08;;;;;;;1.48;0.40;;;12.30;99.90;;;;;;5013576;28;20048;-67
2022/12/31 05:25:34;;;;;;;0.47;0.40;;;12.30;99.90;;;;;;5011854;28;20033;-68
2022/12/31 05:28:00;;;;;;;0.40;0.40;;;12.40;99.90;;;;;;5002867;28;20037;-67
2022/12/31 05:30:25;;;;;;;0.95;0.50;;;12.40;99.90;;;;;;5015969;28;20052;-67
2022/12/31 05:32:51;;;;;;;0.30;0.30;;;12.60;99.90;;;;;;5010809;28;20029;-67
2022/12/31 05:35:17;;;;;;;0.30;0.30;;;12.60;99.90;;;;;;5006665;28;20053;-67
2022/12/31 05:37:44;;;;;;;0.40;0.40;;;12.50;99.90;;;;;;5014845;28;20113;-67
2022/12/31 05:40:11;;;;;;;0.65;0.50;;;12.50;99.90;;;;;;5014845;28;20022;-67
2022/12/31 05:42:37;;;;;;;0.80;0.52;;;12.60;99.90;;;;;;5017519;28;20036;-67
2022/12/31 05:45:04;;;;;;;0.30;0.30;;;12.60;99.90;;;;;;4992756;28;20033;-67
2022/12/31 05:47:30;;;;;;;0.30;0.30;;;12.50;99.90;;;;;;5009080;28;20076;-67
2022/12/31 05:49:56;;;;;;;1.25;0.30;;;12.50;99.90;;;;;;5013674;28;20034;-67
2022/12/31 05:52:21;;;;;;;1.67;0.77;;;12.50;99.90;;;;;;5014562;28;20125;-67
2022/12/31 05:54:47;;;;;;;0.30;0.30;;;12.40;99.90;;;;;;5012094;28;20052;-67
2022/12/31 05:57:13;;;;;;;0.52;0.20;;;12.40;99.90;;;;;;5017558;28;20506;-68
2022/12/31 05:59:39;;;;;;;0.30;0.30;;;12.40;99.90;;;;;;5013042;28;20056;-67
2022/12/31 06:02:05;;;;;;;0.30;0.30;;;12.40;99.90;;;;;;5012735;28;20053;-67
2022/12/31 06:04:33;;;;;;;0.32;0.30;;;12.50;99.90;;;;;;4999799;28;20029;-67
2022/12/31 06:06:59;;;;;;;0.20;0.20;;;12.40;99.90;;;;;;5010061;28;20034;-67
2022/12/31 06:09:24;;;;;;;0.30;0.30;;;12.40;99.90;;;;;;5005928;28;20084;-67
2022/12/31 06:11:50;;;;;;;0.52;0.20;;;12.40;99.90;;;;;;5014327;28;20402;-67
2022/12/31 06:14:16;;;;;;;0.35;0.28;;;12.30;99.90;;;;;;5015342;28;20117;-68
2022/12/31 06:16:42;;;;;;;0.60;0.30;;;12.40;99.90;;;;;;5016282;28;20565;-67
2022/12/31 06:19:08;;;;;;;0.40;0.30;;;12.40;99.90;;;;;;5016307;28;20034;-67
2022/12/31 06:21:34;;;;;;;4.20;0.47;;;12.40;99.90;;;;;;5012594;28;20037;-67
2022/12/31 06:24:00;;;;;;;1.42;0.25;;;12.50;99.90;;;;;;4991882;28;20800;-67
2022/12/31 06:26:26;;;;;;;0.20;0.20;;;12.50;99.90;;;;;;5017110;28;20044;-67
2022/12/31 06:28:53;;;;;;;0.30;0.30;;;12.50;99.90;;;;;;5008335;28;20041;-67
2022/12/31 06:31:18;;;;;;;0.40;0.30;;;12.60;99.90;;;;;;5012549;28;20105;-67
2022/12/31 06:33:45;;;;;;;0.20;0.20;;;12.50;99.90;;;;;;4996067;28;20162;-66
2022/12/31 06:36:13;;;;;;;0.22;0.22;;;12.60;99.90;;;;;;5015960;28;20029;-67
2022/12/31 06:38:41;;;;;;;0.85;0.30;;;12.60;99.90;;;;;;5014922;28;20029;-67
2022/12/31 06:41:09;;;;;;;0.28;0.28;;;12.60;99.90;;;;;;5012188;28;20030;-66
2022/12/31 06:43:36;;;;;;;0.88;0.10;;;12.80;99.90;;;;;;5006405;28;20030;-66
2022/12/31 06:46:04;;;;;;;0.98;0.30;;;12.80;99.90;;;;;;5016657;28;20060;-66
2022/12/31 06:48:30;;;;;;;0.20;0.20;;;12.90;99.90;;;;;;5016650;28;20041;-66
2022/12/31 06:50:55;;;;;;;1.15;0.30;;;12.90;99.90;;;;;;5011710;28;20041;-66
2022/12/31 06:53:21;;;;;;;0.25;0.25;;;13.10;99.90;;;;;;5018965;28;20752;-67
2022/12/31 06:55:48;;;;;;;1.20;0.10;;;13.10;99.90;;;;;;5023038;28;20708;-67
2022/12/31 06:58:15;;;;;;;0.60;0.20;;;13.20;99.90;;;;;;5012869;28;20059;-67
2022/12/31 07:01:00;;;;;;;0.30;0.20;;;13.30;99.90;;;;;;5014046;28;20052;-67
2022/12/31 07:04:03;;;;;;;0.20;0.20;;;13.30;99.90;;;;;;5011925;28;20047;-66
2022/12/31 07:07:03;;;;;;;0.10;0.10;;;13.50;99.90;;;;;;5012889;28;20568;-67
2022/12/31 07:09:44;;;;;;;0.20;0.20;;;13.60;99.90;;;;;;5003324;28;20041;-67
2022/12/31 07:13:00;;;;;;;0.13;0.13;;;13.60;99.90;;;;;;5000107;28;20029;-66
2022/12/31 07:15:44;;;;;;;0.75;0.10;;;13.70;99.90;;;;;;4924273;29;20408;-66
2022/12/31 07:18:42;;;;;;;0.30;0.10;;;13.70;99.90;;;;;;5013587;28;20034;-67
2022/12/31 07:21:13;;;;;;;0.10;0.10;;;13.80;99.90;;;;;;5012110;28;20061;-67
2022/12/31 07:23:40;;;;;;;0.52;0.40;;;13.80;99.80;;;;;;5014480;28;20040;-66
2022/12/31 07:26:33;;;;;;;1.75;0.45;;;13.80;99.80;;;;;;5009332;28;20441;-67
2022/12/31 07:29:12;;;;;;;0.80;0.80;;;13.90;99.80;;;;;;5015232;28;20030;-67
2022/12/31 07:32:02;;;;;;;1.92;0.98;;;13.90;99.80;;;;;;4998806;28;20033;-67
2022/12/31 07:35:05;;;;;;;0.70;0.50;;;13.90;99.80;;;;;;5016126;28;20029;-66
2022/12/31 07:37:43;;;;;;;1.42;0.68;;;13.90;99.60;;;;;;4993556;28;20083;-66
2022/12/31 07:40:30;;;;;;;0.30;0.30;;;14.00;99.40;;;;;;5010577;28;20029;-68
2022/12/31 07:43:12;;;;;;;0.57;0.30;;;14.00;99.40;;;;;;5013808;28;20029;-67
2022/12/31 07:45:49;;;;;;;0.50;0.20;;;14.00;99.20;;;;;;5012783;28;20037;-68
2022/12/31 07:48:33;;;;;;;1.92;0.93;;;14.10;99.10;;;;;;5017558;28;20065;-67
2022/12/31 07:50:59;;;;;;;0.17;0.17;;;14.20;99.00;;;;;;5015465;28;20033;-67
2022/12/31 07:53:26;;;;;;;0.20;0.20;;;14.20;99.00;;;;;;5014892;28;20383;-67
2022/12/31 07:55:58;;;;;;;0.85;0.20;;;14.20;98.90;;;;;;5015053;28;20104;-66
2022/12/31 07:58:39;;;;;;;1.75;0.40;;;14.20;98.80;;;;;;5011944;28;20087;-67
2022/12/31 08:01:15;;;;;;;0.47;0.20;;;14.30;98.80;;;;;;5005498;28;20087;-66
2022/12/31 08:03:55;;;;;;;1.55;0.68;;;14.30;98.70;;;;;;5012096;28;20090;-67
2022/12/31 08:06:36;;;;;;;0.50;0.32;;;14.30;98.70;;;;;;4993172;28;20041;-66
2022/12/31 08:09:38;;;;;;;1.88;0.20;;;14.40;98.60;;;;;;5015624;28;20121;-66
2022/12/31 08:12:05;;;;;;;0.43;0.22;;;14.50;98.40;;;;;;5011370;28;20453;-67
2022/12/31 08:14:35;;;;;;;0.50;0.20;;;14.50;98.30;;;;;;5009979;28;20036;-67
2022/12/31 08:17:01;;;;;;;0.22;0.17;;;14.50;98.20;;;;;;5012068;28;20053;-67
2022/12/31 08:19:30;;;;;;;0.77;0.30;;;14.60;98.20;;;;;;5015330;28;20029;-67
2022/12/31 08:21:59;;;;;;;0.50;0.20;;;14.60;98.10;;;;;;5007093;28;20025;-67
2022/12/31 08:24:25;;;;;;;0.25;0.20;;;14.70;98.00;;;;;;4989385;28;20034;-67
2022/12/31 08:27:02;;;;;;;0.28;0.20;;;14.70;97.80;;;;;;5012182;28;20028;-68
2022/12/31 08:29:36;;;;;;;0.10;0.10;;;14.80;97.70;;;;;;5006805;28;20029;-67
2022/12/31 08:32:16;;;;;;;1.38;0.45;;;14.80;97.50;;;;;;5007905;28;20103;-68
2022/12/31 08:35:01;;;;;;;0.20;0.20;;;14.90;97.60;;;;;;5007691;28;20442;-68
2022/12/31 08:37:39;;;;;;;0.80;0.30;;;14.90;97.40;;;;;;5008353;28;20038;-68
2022/12/31 08:40:19;;;;;;;0.88;0.30;;;15.00;97.20;;;;;;5010413;28;20021;-68
2022/12/31 08:43:10;;;;;;;0.30;0.30;;;15.00;97.20;;;;;;5007687;28;20034;-69
2022/12/31 08:45:50;;;;;;;0.32;0.32;;;15.10;97.20;;;;;;5014661;28;20121;-68
2022/12/31 08:48:31;;;;;;;0.45;0.20;;;15.10;97.00;;;;;;4995348;28;20116;-68
2022/12/31 08:50:57;;;;;;;0.20;0.20;;;15.20;97.00;;;;;;5011151;28;20108;-68
2022/12/31 08:53:24;;;;;;;1.30;0.40;;;15.30;96.40;;;;;;5014047;28;20034;-68
2022/12/31 08:55:57;;;;;;;0.43;0.28;;;15.20;96.50;;;;;;4999491;28;20041;-68
2022/12/31 08:59:27;;;;;;;1.42;0.57;;;15.30;96.60;;;;;;4996103;28;20493;-68
2022/12/31 09:02:26;;;;;;;0.30;0.30;;;15.30;96.40;;;;;;4944640;28;20449;-67
2022/12/31 09:05:15;;;;;;;0.13;0.13;;;15.30;96.70;;;;;;5014104;28;20037;-68
2022/12/31 09:07:49;;;;;;;1.30;0.52;;;15.30;96.60;;;;;;5010988;28;20405;-68
2022/12/31 09:10:27;;;;;;;0.68;0.30;;;15.30;96.60;;;;;;4990316;28;20072;-67
2022/12/31 09:13:13;;;;;;;0.90;0.57;;;15.40;96.70;;;;;;5008750;28;20025;-67
2022/12/31 09:15:45;;;;;;;0.68;0.35;;;15.40;96.40;;;;;;5010378;28;20319;-66
2022/12/31 09:18:12;;;;;;;0.50;0.45;;;15.50;96.50;;;;;;5007529;28;20050;-67
2022/12/31 09:20:38;;;;;;;0.65;0.20;;;15.50;96.20;;;;;;5006573;28;20500;-67
2022/12/31 09:23:05;;;;;;;0.40;0.40;;;15.60;96.20;;;;;;5012886;28;20038;-67
2022/12/31 09:25:32;;;;;;;1.02;0.55;;;15.70;95.90;;;;;;5013985;28;20033;-67
2022/12/31 09:28:10;;;;;;;0.32;0.32;;;15.70;95.80;;;;;;5017145;28;20038;-67
2022/12/31 09:31:04;;;;;;;0.70;0.20;;;16.00;95.50;;;;;;5011910;28;20156;-67
2022/12/31 09:33:54;;;;;;;1.15;0.70;;;16.20;94.80;;;;;;5015406;28;20029;-67
2022/12/31 09:36:29;;;;;;;0.60;0.55;;;16.20;94.70;;;;;;5013182;28;20030;-67
2022/12/31 09:39:10;;;;;;;1.27;0.35;;;16.20;94.90;;;;;;5014728;28;20423;-68
2022/12/31 09:42:10;;;;;;;1.60;1.15;;;16.30;94.90;;;;;;5014612;28;20033;-65
2022/12/31 09:45:11;;;;;;;2.45;0.95;;;16.30;94.60;;;;;;5016307;28;20053;-66
2022/12/31 09:48:09;;;;;;;6.72;0.40;;;16.20;94.90;;;;;;4978553;28;20487;-66
2022/12/31 09:50:38;;;;;;;0.63;0.40;;;16.20;95.00;;;;;;4998045;28;20797;-66
2022/12/31 09:53:29;;;;;;;0.52;0.40;;;16.20;95.10;;;;;;5012315;28;20048;-66
2022/12/31 09:56:11;;;;;;;0.55;0.30;;;16.20;94.80;;;;;;5013967;28;20026;-65
2022/12/31 09:58:48;;;;;;;0.68;0.40;;;16.30;94.60;;;;;;5011326;28;20074;-67
2022/12/31 10:02:01;;;;;;;0.93;0.30;;;16.30;94.70;;;;;;5009945;28;20030;-64
2022/12/31 10:04:48;;;;;;;0.32;0.32;;;16.30;94.90;;;;;;4941396;28;20154;-65
2022/12/31 10:07:26;;;;;;;1.10;0.68;;;16.40;94.80;;;;;;4939627;28;20858;-65
2022/12/31 10:10:00;;;;;;;2.00;1.33;;;16.50;94.40;;;;;;4988582;28;20033;-68
2022/12/31 10:13:08;;;;;;;0.40;0.40;;;16.60;94.10;;;;;;5011867;28;20048;-64
2022/12/31 10:15:52;;;;;;;0.73;0.38;;;16.70;94.10;;;;;;5007175;28;20553;-64
2022/12/31 10:18:44;;;;;;;0.80;0.60;;;16.70;93.90;;;;;;5016698;28;20029;-64
2022/12/31 10:21:28;;;;;;;4.63;0.40;;;16.80;93.80;;;;;;5012893;28;20072;-64
2022/12/31 10:24:33;;;;;;;1.85;0.55;;;17.40;92.60;;;;;;5016983;28;20065;-66
2022/12/31 10:27:23;;;;;;;2.15;0.50;;;17.30;92.70;;;;;;4940460;28;20126;-66
2022/12/31 10:30:02;;;;;;;3.42;1.83;;;17.00;93.10;;;;;;4939356;28;20034;-66
2022/12/31 10:32:49;;;;;;;0.43;0.43;;;16.90;93.40;;;;;;4990077;28;20045;-66
2022/12/31 10:35:37;;;;;;;3.95;1.80;;;16.80;93.40;;;;;;5015177;28;20026;-67
2022/12/31 10:38:21;;;;;;;3.85;1.83;;;16.90;93.60;;;;;;5014307;28;20686;-65
2022/12/31 10:41:37;;;;;;;1.45;1.05;;;16.90;93.50;;;;;;5015805;28;20067;-67
2022/12/31 10:44:28;;;;;;;1.83;0.77;;;17.00;93.30;;;;;;4960503;28;20368;-68
2022/12/31 10:47:15;;;;;;;9.63;5.47;;;17.10;93.20;;;;;;4958630;28;20042;-68
2022/12/31 10:50:11;;;;;;;3.15;2.20;;;17.10;93.00;;;;;;5005356;28;20041;-69
2022/12/31 10:53:12;;;;;;;2.63;2.40;;;17.00;93.00;;;;;;5013079;28;20041;-69
2022/12/31 10:55:56;;;;;;;7.63;5.00;;;17.00;93.20;;;;;;5015450;28;20453;-69
2022/12/31 10:58:54;;;;;;;3.35;1.98;;;17.10;93.00;;;;;;5016156;28;20029;-68
2022/12/31 11:01:31;;;;;;;1.60;1.20;;;17.20;92.80;;;;;;5009822;28;20088;-69
2022/12/31 11:04:22;;;;;;;4.13;2.72;;;17.20;92.80;;;;;;5012728;28;20034;-69
2022/12/31 11:06:48;;;;;;;4.75;2.40;;;17.30;92.60;;;;;;5012075;28;20029;-70
2022/12/31 11:09:47;;;;;;;3.08;0.95;;;17.40;92.50;;;;;;5012969;28;20033;-68
2022/12/31 11:12:25;;;;;;;2.83;1.35;;;17.40;92.40;;;;;;5013091;28;20104;-69
2022/12/31 11:15:18;;;;;;;6.13;3.25;;;17.50;92.30;;;;;;5011644;28;20054;-68
2022/12/31 11:17:53;;;;;;;9.93;3.90;;;17.60;92.00;;;;;;5006552;28;20038;-68
2022/12/31 11:20:29;;;;;;;6.00;2.85;;;17.60;91.80;;;;;;5018074;28;20036;-68
2022/12/31 11:23:18;;;;;;;6.65;2.78;;;17.60;91.90;;;;;;5007978;28;20038;-69
2022/12/31 11:26:00;;;;;;;5.10;2.55;;;17.70;91.60;;;;;;5006970;28;20030;-69
2022/12/31 11:28:51;;;;;;;8.88;4.22;;;17.70;91.60;;;;;;5012411;28;20030;-70
2022/12/31 11:31:26;;;;;;;20.40;8.50;;;17.70;91.50;;;;;;5004223;28;20060;-68
2022/12/31 11:34:09;;;;;;;6.60;3.13;;;17.70;91.80;;;;;;5013942;28;20137;-69
2022/12/31 11:36:41;;;;;;;6.00;2.53;;;17.70;91.50;;;;;;4993145;28;20112;-69
2022/12/31 11:39:40;;;;;;;7.28;3.60;;;17.70;91.70;;;;;;4994621;28;20092;-71
2022/12/31 11:42:38;;;;;;;7.63;2.50;;;17.60;91.80;;;;;;5019523;28;20025;-69
2022/12/31 11:45:48;;;;;;;6.60;2.70;;;17.70;91.60;;;;;;5006943;28;20065;-69
2022/12/31 11:48:14;;;;;;;3.47;1.60;;;17.70;91.50;;;;;;4969204;28;20140;-69
2022/12/31 11:51:01;;;;;;;2.40;1.33;;;17.70;91.30;;;;;;5012384;28;20047;-69
2022/12/31 11:53:39;;;;;;;6.95;2.60;;;17.70;91.40;;;;;;5005299;28;20029;-68
2022/12/31 11:56:13;;;;;;;3.10;2.03;;;17.60;91.40;;;;;;5010687;28;20072;-69
2022/12/31 11:58:49;;;;;;;4.18;1.25;;;17.70;91.40;;;;;;5009413;28;20037;-69
2022/12/31 12:01:49;;;;;;;4.95;1.40;;;17.80;91.30;;;;;;5010207;28;20056;-69
2022/12/31 12:04:15;;;;;;;2.50;0.80;;;17.70;91.50;;;;;;5009580;28;20041;-69
2022/12/31 12:06:42;;;;;;;4.93;1.48;;;17.60;91.40;;;;;;5012209;28;20583;-69
2022/12/31 12:09:26;;;;;;;2.33;0.63;;;17.60;91.80;;;;;;5008146;28;20108;-69
2022/12/31 12:12:04;;;;;;;1.63;0.50;;;17.50;91.60;;;;;;4984116;28;20048;-69
2022/12/31 12:14:40;;;;;;;3.17;1.10;;;17.40;91.70;;;;;;5014300;28;20760;-69
2022/12/31 12:17:16;;;;;;;2.08;0.95;;;17.50;91.60;;;;;;5014050;28;20048;-69
2022/12/31 12:19:45;;;;;;;1.35;0.40;;;17.50;91.50;;;;;;5008305;28;20053;-69
2022/12/31 12:22:13;;;;;;;2.25;0.57;;;17.40;91.60;;;;;;5010605;28;20034;-69
2022/12/31 12:24:39;;;;;;;0.80;0.52;;;17.40;91.80;;;;;;5009376;28;20663;-69
2022/12/31 12:27:20;;;;;;;1.05;0.40;;;17.40;91.90;;;;;;4988784;28;20022;-69
2022/12/31 12:29:47;;;;;;;1.27;0.50;;;17.30;92.10;;;;;;5007724;28;20087;-69
2022/12/31 12:32:20;;;;;;;1.05;0.60;;;17.30;92.00;;;;;;5018584;28;20029;-70
2022/12/31 12:34:46;;;;;;;0.50;0.50;;;17.20;92.00;;;;;;5014995;28;20496;-69
2022/12/31 12:37:24;;;;;;;2.40;0.63;;;17.20;92.00;;;;;;5013340;28;20097;-69
2022/12/31 12:40:20;;;;;;;0.57;0.57;;;17.20;91.80;;;;;;5004770;28;20060;-69
2022/12/31 12:42:47;;;;;;;1.17;0.87;;;17.30;92.00;;;;;;5011736;28;20042;-69
2022/12/31 12:45:16;;;;;;;3.10;0.80;;;17.30;91.90;;;;;;5011686;28;20281;-69
2022/12/31 12:47:44;;;;;;;1.15;0.68;;;17.30;91.80;;;;;;5010888;28;20828;-69
2022/12/31 12:50:17;;;;;;;2.58;0.80;;;17.30;91.90;;;;;;5011877;28;20029;-69
2022/12/31 12:53:02;;;;;;;1.10;0.70;;;17.30;91.80;;;;;;5002076;28;20068;-69
2022/12/31 12:55:27;;;;;;;2.83;0.60;;;17.40;91.80;;;;;;5009831;28;20048;-69
2022/12/31 12:58:26;;;;;;;3.10;0.70;;;17.40;91.40;;;;;;5012182;28;20538;-69
2022/12/31 13:01:28;;;;;;;2.42;0.77;;;17.50;91.40;;;;;;5005467;28;20029;-69
2022/12/31 13:04:30;;;;;;;0.60;0.38;;;17.50;91.30;;;;;;5011034;28;20041;-68
2022/12/31 13:07:13;;;;;;;5.05;0.60;;;17.40;91.40;;;;;;5013050;28;20037;-69
2022/12/31 13:09:52;;;;;;;1.52;0.57;;;17.30;91.60;;;;;;5020344;28;20026;-69
2022/12/31 13:12:47;;;;;;;0.90;0.60;;;17.40;91.70;;;;;;5017439;28;20049;-69
2022/12/31 13:15:23;;;;;;;1.27;0.43;;;17.40;91.60;;;;;;5009795;28;20045;-69
2022/12/31 13:17:49;;;;;;;1.73;0.47;;;17.30;91.90;;;;;;5015813;28;20040;-69
2022/12/31 13:20:38;;;;;;;0.68;0.30;;;17.30;91.90;;;;;;5012735;28;20038;-69
2022/12/31 13:23:30;;;;;;;6.68;0.50;;;17.30;91.80;;;;;;5006549;28;20088;-69
2022/12/31 13:26:23;;;;;;;1.58;0.57;;;17.20;91.90;;;;;;5018771;28;20064;-68
2022/12/31 13:28:52;;;;;;;1.00;0.70;;;17.20;91.70;;;;;;5016737;28;20876;-68
2022/12/31 13:31:31;;;;;;;0.60;0.60;;;17.20;91.70;;;;;;5013417;28;20405;-68
2022/12/31 13:34:12;;;;;;;2.38;0.70;;;17.20;91.80;;;;;;5009210;28;20149;-69